sensor_id;sensor_type;location;lat;lon;timestamp;temperature;humidity
8858;DHT22;4465;50.904;4.696;2023-02-01T00:06:05;7.00;99.90
8858;DHT22;4465;50.904;4.696;2023-02-01T00:08:31;7.00;99.90
8858;DHT22;4465;50.904;4.696;2023-02-01T00:10:59;7.00;99.90
8858;DHT22;4465;50.904;4.696;2023-02-01T00:13:31;7.10;99.90
8858;DHT22;4465;50.904;4.696;2023-02-01T00:16:10;7.10;99.90
8858;DHT22;4465;50.904;4.696;2023-02-01T00:18:40;7.10;99.90
8858;DHT22;4465;50.904;4.696;2023-02-01T00:21:06;7.10;99.90
8858;DHT22;4465;50.904;4.696;2023-02-01T00:23:34;7.10;99.90
8858;DHT22;4465;50.904;4.696;2023-02-01T00:26:09;7.10;99.90
8858;DHT22;4465;50.904;4.696;2023-02-01T00:28:36;7.10;99.90
8858;DHT22;4465;50.904;4.696;2023-02-01T00:31:06;7.10;99.90
8858;DHT22;4465;50.904;4.696;2023-02-01T00:33:35;7.10;99.90
8858;DHT22;4465;50.904;4.696;2023-02-01T00:36:04;7.10;99.90
8858;DHT22;4465;50.904;4.696;2023-02-01T00:38:36;7.10;99.90
8858;DHT22;4465;50.904;4.696;2023-02-01T00:41:03;7.10;99.90
8858;DHT22;4465;50.904;4.696;2023-02-01T00:43:33;7.10;99.90
8858;DHT22;4465;50.904;4.696;2023-02-01T00:46:00;7.10;99.90
8858;DHT22;4465;50.904;4.696;2023-02-01T00:48:29;7.10;99.90
8858;DHT22;4465;50.904;4.696;2023-02-01T00:50:59;7.10;99.90
8858;DHT22;4465;50.904;4.696;2023-02-01T00:53:28;7.10;99.90
8858;DHT22;4465;50.904;4.696;2023-02-01T00:55:54;7.10;99.90
8858;DHT22;4465;50.904;4.696;2023-02-01T00:58:21;7.10;99.90
8858;DHT22;4465;50.904;4.696;2023-02-01T01:00:49;7.10;99.90
8858;DHT22;4465;50.904;4.696;2023-02-01T01:03:15;7.20;99.90
8858;DHT22;4465;50.904;4.696;2023-02-01T01:05:48;7.10;99.90
8858;DHT22;4465;50.904;4.696;2023-02-01T01:08:15;7.10;99.90
8858;DHT22;4465;50.904;4.696;2023-02-01T01:10:43;7.10;99.90
8858;DHT22;4465;50.904;4.696;2023-02-01T01:13:09;7.10;99.90
8858;DHT22;4465;50.904;4.696;2023-02-01T01:15:39;7.10;99.90
8858;DHT22;4465;50.904;4.696;2023-02-01T01:18:06;7.10;99.90
8858;DHT22;4465;50.904;4.696;2023-02-01T01:20:38;7.10;99.90
8858;DHT22;4465;50.904;4.696;2023-02-01T01:23:08;7.10;99.90
8858;DHT22;4465;50.904;4.696;2023-02-01T01:25:40;7.10;99.90
8858;DHT22;4465;50.904;4.696;2023-02-01T01:28:07;7.10;99.90
8858;DHT22;4465;50.904;4.696;2023-02-01T01:30:34;7.10;99.90
8858;DHT22;4465;50.904;4.696;2023-02-01T01:33:01;7.10;99.90
8858;DHT22;4465;50.904;4.696;2023-02-01T01:35:29;7.10;99.90
8858;DHT22;4465;50.904;4.696;2023-02-01T01:37:55;7.10;99.90
8858;DHT22;4465;50.904;4.696;2023-02-01T01:40:21;7.10;99.90
8858;DHT22;4465;50.904;4.696;2023-02-01T01:42:50;7.00;99.90
8858;DHT22;4465;50.904;4.696;2023-02-01T01:47:58;7.00;99.90
8858;DHT22;4465;50.904;4.696;2023-02-01T01:50:29;7.00;99.90
8858;DHT22;4465;50.904;4.696;2023-02-01T01:52:58;7.00;99.90
8858;DHT22;4465;50.904;4.696;2023-02-01T01:55:26;7.00;99.90
8858;DHT22;4465;50.904;4.696;2023-02-01T01:58:01;7.00;99.90
8858;DHT22;4465;50.904;4.696;2023-02-01T02:00:28;7.00;99.90
8858;DHT22;4465;50.904;4.696;2023-02-01T02:02:59;7.00;99.90
8858;DHT22;4465;50.904;4.696;2023-02-01T02:05:28;7.00;99.90
8858;DHT22;4465;50.904;4.696;2023-02-01T02:07:58;6.90;99.90
8858;DHT22;4465;50.904;4.696;2023-02-01T02:10:24;6.90;99.90
8858;DHT22;4465;50.904;4.696;2023-02-01T02:13:11;6.90;99.90
8858;DHT22;4465;50.904;4.696;2023-02-01T02:15:43;6.90;99.90
8858;DHT22;4465;50.904;4.696;2023-02-01T02:18:32;6.90;99.90
8858;DHT22;4465;50.904;4.696;2023-02-01T02:21:16;6.90;99.90
8858;DHT22;4465;50.904;4.696;2023-02-01T02:35:33;6.70;99.90
8858;DHT22;4465;50.904;4.696;2023-02-01T02:38:28;6.60;99.90
8858;DHT22;4465;50.904;4.696;2023-02-01T02:43:47;6.60;99.90
8858;DHT22;4465;50.904;4.696;2023-02-01T02:46:47;6.50;99.90
8858;DHT22;4465;50.904;4.696;2023-02-01T02:49:43;6.50;99.90
8858;DHT22;4465;50.904;4.696;2023-02-01T02:52:36;6.40;99.90
8858;DHT22;4465;50.904;4.696;2023-02-01T02:55:23;6.30;99.90
8858;DHT22;4465;50.904;4.696;2023-02-01T02:57:51;6.30;99.90
8858;DHT22;4465;50.904;4.696;2023-02-01T03:00:37;6.20;99.90
8858;DHT22;4465;50.904;4.696;2023-02-01T03:03:22;6.20;99.90
8858;DHT22;4465;50.904;4.696;2023-02-01T03:06:13;6.20;99.90
8858;DHT22;4465;50.904;4.696;2023-02-01T03:08:41;6.10;99.90
8858;DHT22;4465;50.904;4.696;2023-02-01T03:11:14;6.10;99.90
8858;DHT22;4465;50.904;4.696;2023-02-01T03:13:59;6.20;99.90
8858;DHT22;4465;50.904;4.696;2023-02-01T03:16:54;6.10;99.90
8858;DHT22;4465;50.904;4.696;2023-02-01T03:19:34;6.10;99.90
8858;DHT22;4465;50.904;4.696;2023-02-01T03:22:05;6.10;99.90
8858;DHT22;4465;50.904;4.696;2023-02-01T03:24:40;6.00;99.90
8858;DHT22;4465;50.904;4.696;2023-02-01T03:30:02;6.00;99.90
8858;DHT22;4465;50.904;4.696;2023-02-01T03:32:32;6.00;99.90
8858;DHT22;4465;50.904;4.696;2023-02-01T03:35:32;6.00;99.90
8858;DHT22;4465;50.904;4.696;2023-02-01T03:38:20;6.00;99.90
8858;DHT22;4465;50.904;4.696;2023-02-01T03:40:53;6.00;99.90
8858;DHT22;4465;50.904;4.696;2023-02-01T03:43:24;6.00;99.90
8858;DHT22;4465;50.904;4.696;2023-02-01T03:45:58;6.00;99.90
8858;DHT22;4465;50.904;4.696;2023-02-01T03:48:28;6.00;99.90
8858;DHT22;4465;50.904;4.696;2023-02-01T03:50:57;6.10;99.90
8858;DHT22;4465;50.904;4.696;2023-02-01T03:53:25;6.00;99.90
8858;DHT22;4465;50.904;4.696;2023-02-01T03:55:56;6.10;99.90
8858;DHT22;4465;50.904;4.696;2023-02-01T03:58:23;6.00;99.90
8858;DHT22;4465;50.904;4.696;2023-02-01T04:00:57;6.00;99.90
8858;DHT22;4465;50.904;4.696;2023-02-01T04:03:24;6.00;99.90
8858;DHT22;4465;50.904;4.696;2023-02-01T04:05:51;6.00;99.90
8858;DHT22;4465;50.904;4.696;2023-02-01T04:08:22;6.10;99.90
8858;DHT22;4465;50.904;4.696;2023-02-01T04:10:48;6.00;99.90
8858;DHT22;4465;50.904;4.696;2023-02-01T04:13:14;6.00;99.90
8858;DHT22;4465;50.904;4.696;2023-02-01T04:15:41;6.00;99.90
8858;DHT22;4465;50.904;4.696;2023-02-01T04:18:07;6.00;99.90
8858;DHT22;4465;50.904;4.696;2023-02-01T04:20:33;6.00;99.90
8858;DHT22;4465;50.904;4.696;2023-02-01T04:22:59;6.00;99.90
8858;DHT22;4465;50.904;4.696;2023-02-01T04:25:29;6.00;99.90
8858;DHT22;4465;50.904;4.696;2023-02-01T04:27:57;6.00;99.90
8858;DHT22;4465;50.904;4.696;2023-02-01T04:30:23;5.90;99.90
8858;DHT22;4465;50.904;4.696;2023-02-01T04:32:49;6.00;99.90
8858;DHT22;4465;50.904;4.696;2023-02-01T04:35:15;5.90;99.90
8858;DHT22;4465;50.904;4.696;2023-02-01T04:37:43;5.90;99.90
8858;DHT22;4465;50.904;4.696;2023-02-01T04:40:11;5.90;99.90
8858;DHT22;4465;50.904;4.696;2023-02-01T04:42:37;5.90;99.90
8858;DHT22;4465;50.904;4.696;2023-02-01T04:45:03;5.90;99.90
8858;DHT22;4465;50.904;4.696;2023-02-01T04:47:29;5.90;99.90
8858;DHT22;4465;50.904;4.696;2023-02-01T04:49:56;5.90;99.90
8858;DHT22;4465;50.904;4.696;2023-02-01T04:52:22;5.90;99.90
8858;DHT22;4465;50.904;4.696;2023-02-01T04:54:50;5.90;99.90
8858;DHT22;4465;50.904;4.696;2023-02-01T04:57:23;5.80;99.90
8858;DHT22;4465;50.904;4.696;2023-02-01T04:59:49;5.80;99.90
8858;DHT22;4465;50.904;4.696;2023-02-01T05:02:17;5.80;99.90
8858;DHT22;4465;50.904;4.696;2023-02-01T05:04:43;5.80;99.90
8858;DHT22;4465;50.904;4.696;2023-02-01T05:07:11;5.80;99.90
8858;DHT22;4465;50.904;4.696;2023-02-01T05:09:38;5.80;99.90
8858;DHT22;4465;50.904;4.696;2023-02-01T05:12:05;5.80;99.90
8858;DHT22;4465;50.904;4.696;2023-02-01T05:14:49;5.70;99.90
8858;DHT22;4465;50.904;4.696;2023-02-01T05:17:15;5.70;99.90
8858;DHT22;4465;50.904;4.696;2023-02-01T05:19:43;5.70;99.90
8858;DHT22;4465;50.904;4.696;2023-02-01T05:22:09;5.80;99.90
8858;DHT22;4465;50.904;4.696;2023-02-01T05:24:35;5.70;99.90
8858;DHT22;4465;50.904;4.696;2023-02-01T05:27:01;5.70;99.90
8858;DHT22;4465;50.904;4.696;2023-02-01T05:29:28;5.70;99.90
8858;DHT22;4465;50.904;4.696;2023-02-01T05:31:54;5.70;99.90
8858;DHT22;4465;50.904;4.696;2023-02-01T05:34:20;5.70;99.90
8858;DHT22;4465;50.904;4.696;2023-02-01T05:36:48;5.70;99.90
8858;DHT22;4465;50.904;4.696;2023-02-01T05:39:15;5.60;99.90
8858;DHT22;4465;50.904;4.696;2023-02-01T05:41:41;5.70;99.90
8858;DHT22;4465;50.904;4.696;2023-02-01T05:44:07;5.50;99.90
8858;DHT22;4465;50.904;4.696;2023-02-01T05:46:34;5.60;99.90
8858;DHT22;4465;50.904;4.696;2023-02-01T05:49:01;5.60;99.90
8858;DHT22;4465;50.904;4.696;2023-02-01T05:51:27;5.60;99.90
8858;DHT22;4465;50.904;4.696;2023-02-01T05:53:54;5.50;99.90
8858;DHT22;4465;50.904;4.696;2023-02-01T05:56:20;5.60;99.90
8858;DHT22;4465;50.904;4.696;2023-02-01T05:58:47;5.50;99.90
8858;DHT22;4465;50.904;4.696;2023-02-01T06:01:13;5.50;99.90
8858;DHT22;4465;50.904;4.696;2023-02-01T06:03:39;5.50;99.90
8858;DHT22;4465;50.904;4.696;2023-02-01T06:06:05;5.40;99.90
8858;DHT22;4465;50.904;4.696;2023-02-01T06:08:31;5.40;99.90
8858;DHT22;4465;50.904;4.696;2023-02-01T06:11:02;5.50;99.90
8858;DHT22;4465;50.904;4.696;2023-02-01T06:13:28;5.40;99.90
8858;DHT22;4465;50.904;4.696;2023-02-01T06:15:58;5.40;99.90
8858;DHT22;4465;50.904;4.696;2023-02-01T06:18:27;5.40;99.90
8858;DHT22;4465;50.904;4.696;2023-02-01T06:20:54;5.40;99.90
8858;DHT22;4465;50.904;4.696;2023-02-01T06:23:21;5.40;99.90
8858;DHT22;4465;50.904;4.696;2023-02-01T06:26:07;5.40;99.90
8858;DHT22;4465;50.904;4.696;2023-02-01T06:28:34;5.40;99.90
8858;DHT22;4465;50.904;4.696;2023-02-01T06:31:05;5.40;99.90
8858;DHT22;4465;50.904;4.696;2023-02-01T06:33:33;5.30;99.90
8858;DHT22;4465;50.904;4.696;2023-02-01T06:36:00;5.30;99.90
8858;DHT22;4465;50.904;4.696;2023-02-01T06:38:27;5.30;99.90
8858;DHT22;4465;50.904;4.696;2023-02-01T06:40:54;5.30;99.90
8858;DHT22;4465;50.904;4.696;2023-02-01T06:43:21;5.30;99.90
8858;DHT22;4465;50.904;4.696;2023-02-01T06:45:47;5.40;99.90
8858;DHT22;4465;50.904;4.696;2023-02-01T06:48:13;5.30;99.90
8858;DHT22;4465;50.904;4.696;2023-02-01T06:50:39;5.30;99.90
8858;DHT22;4465;50.904;4.696;2023-02-01T06:53:05;5.30;99.90
8858;DHT22;4465;50.904;4.696;2023-02-01T06:55:31;5.40;99.90
8858;DHT22;4465;50.904;4.696;2023-02-01T06:58:00;5.30;99.90
8858;DHT22;4465;50.904;4.696;2023-02-01T07:00:28;5.30;99.90
8858;DHT22;4465;50.904;4.696;2023-02-01T07:02:54;5.30;99.90
8858;DHT22;4465;50.904;4.696;2023-02-01T07:05:23;5.30;99.90
8858;DHT22;4465;50.904;4.696;2023-02-01T07:07:49;5.30;99.90
8858;DHT22;4465;50.904;4.696;2023-02-01T07:10:16;5.30;99.90
8858;DHT22;4465;50.904;4.696;2023-02-01T07:12:42;5.30;99.90
8858;DHT22;4465;50.904;4.696;2023-02-01T07:15:08;5.30;99.90
8858;DHT22;4465;50.904;4.696;2023-02-01T07:17:35;5.30;99.90
8858;DHT22;4465;50.904;4.696;2023-02-01T07:20:01;5.20;99.90
8858;DHT22;4465;50.904;4.696;2023-02-01T07:22:27;5.30;99.90
8858;DHT22;4465;50.904;4.696;2023-02-01T07:24:54;5.30;99.90
8858;DHT22;4465;50.904;4.696;2023-02-01T07:27:22;5.30;99.90
8858;DHT22;4465;50.904;4.696;2023-02-01T07:29:51;5.30;99.90
8858;DHT22;4465;50.904;4.696;2023-02-01T07:32:20;5.30;99.90
8858;DHT22;4465;50.904;4.696;2023-02-01T07:34:46;5.30;99.90
8858;DHT22;4465;50.904;4.696;2023-02-01T07:37:14;5.40;99.90
8858;DHT22;4465;50.904;4.696;2023-02-01T07:39:43;5.20;99.90
8858;DHT22;4465;50.904;4.696;2023-02-01T07:42:09;5.30;99.90
8858;DHT22;4465;50.904;4.696;2023-02-01T07:44:35;5.30;99.90
8858;DHT22;4465;50.904;4.696;2023-02-01T07:47:01;5.30;99.90
8858;DHT22;4465;50.904;4.696;2023-02-01T07:49:28;5.30;99.90
8858;DHT22;4465;50.904;4.696;2023-02-01T07:51:54;5.40;99.90
8858;DHT22;4465;50.904;4.696;2023-02-01T07:54:20;5.30;99.90
8858;DHT22;4465;50.904;4.696;2023-02-01T07:56:46;5.30;99.90
8858;DHT22;4465;50.904;4.696;2023-02-01T07:59:12;5.40;99.90
8858;DHT22;4465;50.904;4.696;2023-02-01T08:01:37;5.40;99.90
8858;DHT22;4465;50.904;4.696;2023-02-01T08:04:04;5.40;99.90
8858;DHT22;4465;50.904;4.696;2023-02-01T08:06:32;5.40;99.90
8858;DHT22;4465;50.904;4.696;2023-02-01T08:08:59;5.40;99.90
8858;DHT22;4465;50.904;4.696;2023-02-01T08:11:25;5.40;99.90
8858;DHT22;4465;50.904;4.696;2023-02-01T08:13:54;5.50;99.90
8858;DHT22;4465;50.904;4.696;2023-02-01T08:16:23;5.50;99.90
8858;DHT22;4465;50.904;4.696;2023-02-01T08:18:49;5.60;99.90
8858;DHT22;4465;50.904;4.696;2023-02-01T08:21:20;5.60;99.90
8858;DHT22;4465;50.904;4.696;2023-02-01T08:23:47;5.70;99.90
8858;DHT22;4465;50.904;4.696;2023-02-01T08:26:20;5.70;99.90
8858;DHT22;4465;50.904;4.696;2023-02-01T08:28:56;5.70;99.90
8858;DHT22;4465;50.904;4.696;2023-02-01T08:31:23;5.80;99.90
8858;DHT22;4465;50.904;4.696;2023-02-01T08:33:54;5.80;99.90
8858;DHT22;4465;50.904;4.696;2023-02-01T08:36:21;5.80;99.90
8858;DHT22;4465;50.904;4.696;2023-02-01T08:38:48;5.80;99.90
8858;DHT22;4465;50.904;4.696;2023-02-01T08:41:17;5.70;99.90
8858;DHT22;4465;50.904;4.696;2023-02-01T08:43:46;5.80;99.90
8858;DHT22;4465;50.904;4.696;2023-02-01T08:46:14;5.80;99.90
8858;DHT22;4465;50.904;4.696;2023-02-01T08:48:40;6.00;99.90
8858;DHT22;4465;50.904;4.696;2023-02-01T08:51:11;5.90;99.90
8858;DHT22;4465;50.904;4.696;2023-02-01T08:53:38;5.90;99.90
8858;DHT22;4465;50.904;4.696;2023-02-01T08:56:05;6.00;99.90
8858;DHT22;4465;50.904;4.696;2023-02-01T08:58:32;6.00;99.90
8858;DHT22;4465;50.904;4.696;2023-02-01T09:01:12;6.00;99.90
8858;DHT22;4465;50.904;4.696;2023-02-01T09:03:39;6.10;99.90
8858;DHT22;4465;50.904;4.696;2023-02-01T09:06:08;6.10;99.90
8858;DHT22;4465;50.904;4.696;2023-02-01T09:08:34;6.20;99.90
8858;DHT22;4465;50.904;4.696;2023-02-01T09:11:07;6.20;99.90
8858;DHT22;4465;50.904;4.696;2023-02-01T09:13:36;6.20;99.90
8858;DHT22;4465;50.904;4.696;2023-02-01T09:16:02;6.30;99.90
8858;DHT22;4465;50.904;4.696;2023-02-01T09:18:31;6.30;99.90
8858;DHT22;4465;50.904;4.696;2023-02-01T09:20:57;6.30;99.90
8858;DHT22;4465;50.904;4.696;2023-02-01T09:23:24;6.40;99.90
8858;DHT22;4465;50.904;4.696;2023-02-01T09:25:50;6.40;99.90
8858;DHT22;4465;50.904;4.696;2023-02-01T09:28:18;6.50;99.90
8858;DHT22;4465;50.904;4.696;2023-02-01T09:30:44;6.60;99.90
8858;DHT22;4465;50.904;4.696;2023-02-01T09:33:10;6.70;99.90
8858;DHT22;4465;50.904;4.696;2023-02-01T09:35:37;6.90;99.90
8858;DHT22;4465;50.904;4.696;2023-02-01T09:38:03;7.00;99.90
8858;DHT22;4465;50.904;4.696;2023-02-01T09:40:30;7.00;99.90
8858;DHT22;4465;50.904;4.696;2023-02-01T09:43:26;7.10;99.90
8858;DHT22;4465;50.904;4.696;2023-02-01T09:46:19;7.20;99.90
8858;DHT22;4465;50.904;4.696;2023-02-01T09:48:52;7.30;99.90
8858;DHT22;4465;50.904;4.696;2023-02-01T09:51:32;7.30;99.90
8858;DHT22;4465;50.904;4.696;2023-02-01T09:56:44;7.50;99.90
8858;DHT22;4465;50.904;4.696;2023-02-01T10:00:00;7.50;99.90
8858;DHT22;4465;50.904;4.696;2023-02-01T10:02:20;7.70;99.90
8858;DHT22;4465;50.904;4.696;2023-02-01T10:04:47;7.80;99.90
8858;DHT22;4465;50.904;4.696;2023-02-01T10:07:20;7.80;99.90
8858;DHT22;4465;50.904;4.696;2023-02-01T10:13:12;8.00;99.90
8858;DHT22;4465;50.904;4.696;2023-02-01T10:18:39;8.30;99.90
8858;DHT22;4465;50.904;4.696;2023-02-01T10:27:07;8.80;99.90
8858;DHT22;4465;50.904;4.696;2023-02-01T10:29:43;9.00;99.90
8858;DHT22;4465;50.904;4.696;2023-02-01T10:32:29;9.20;99.90
8858;DHT22;4465;50.904;4.696;2023-02-01T10:34:59;9.30;99.90
8858;DHT22;4465;50.904;4.696;2023-02-01T10:37:31;9.40;99.90
8858;DHT22;4465;50.904;4.696;2023-02-01T10:40:00;9.50;99.90
8858;DHT22;4465;50.904;4.696;2023-02-01T10:42:28;9.60;99.90
8858;DHT22;4465;50.904;4.696;2023-02-01T10:44:59;9.70;99.90
8858;DHT22;4465;50.904;4.696;2023-02-01T10:47:27;9.80;99.90
8858;DHT22;4465;50.904;4.696;2023-02-01T10:54:55;10.00;99.90
8858;DHT22;4465;50.904;4.696;2023-02-01T10:57:26;10.00;99.90
8858;DHT22;4465;50.904;4.696;2023-02-01T10:59:55;10.10;99.90
8858;DHT22;4465;50.904;4.696;2023-02-01T11:02:31;10.20;99.90
8858;DHT22;4465;50.904;4.696;2023-02-01T11:05:03;10.30;99.90
8858;DHT22;4465;50.904;4.696;2023-02-01T11:07:30;10.40;99.90
8858;DHT22;4465;50.904;4.696;2023-02-01T11:09:57;10.50;99.90
8858;DHT22;4465;50.904;4.696;2023-02-01T11:12:34;10.60;99.90
8858;DHT22;4465;50.904;4.696;2023-02-01T11:15:20;10.70;99.90
8858;DHT22;4465;50.904;4.696;2023-02-01T11:17:48;10.80;99.90
8858;DHT22;4465;50.904;4.696;2023-02-01T11:20:40;10.80;99.90
8858;DHT22;4465;50.904;4.696;2023-02-01T11:23:18;10.80;99.90
8858;DHT22;4465;50.904;4.696;2023-02-01T11:25:55;10.80;99.90
8858;DHT22;4465;50.904;4.696;2023-02-01T11:28:33;10.80;99.90
8858;DHT22;4465;50.904;4.696;2023-02-01T11:31:07;10.70;99.90
8858;DHT22;4465;50.904;4.696;2023-02-01T11:33:37;10.70;99.90
8858;DHT22;4465;50.904;4.696;2023-02-01T11:36:10;10.70;99.90
8858;DHT22;4465;50.904;4.696;2023-02-01T11:38:38;10.70;99.90
8858;DHT22;4465;50.904;4.696;2023-02-01T11:41:18;10.80;99.90
8858;DHT22;4465;50.904;4.696;2023-02-01T11:43:55;10.90;99.90
8858;DHT22;4465;50.904;4.696;2023-02-01T11:46:24;10.90;99.90
8858;DHT22;4465;50.904;4.696;2023-02-01T11:48:53;11.00;99.90
8858;DHT22;4465;50.904;4.696;2023-02-01T12:03:05;11.20;99.90
8858;DHT22;4465;50.904;4.696;2023-02-01T12:14:44;11.70;99.90
8858;DHT22;4465;50.904;4.696;2023-02-01T12:20:20;11.60;99.90
8858;DHT22;4465;50.904;4.696;2023-02-01T12:31:05;11.40;99.90
8858;DHT22;4465;50.904;4.696;2023-02-01T12:33:39;11.20;99.90
8858;DHT22;4465;50.904;4.696;2023-02-01T12:36:39;11.00;99.90
8858;DHT22;4465;50.904;4.696;2023-02-01T12:39:39;10.90;99.90
8858;DHT22;4465;50.904;4.696;2023-02-01T12:42:19;10.70;99.90
8858;DHT22;4465;50.904;4.696;2023-02-01T12:45:03;10.50;99.90
8858;DHT22;4465;50.904;4.696;2023-02-01T12:47:42;10.40;99.90
8858;DHT22;4465;50.904;4.696;2023-02-01T12:50:22;10.30;99.90
8858;DHT22;4465;50.904;4.696;2023-02-01T12:52:55;10.20;99.90
8858;DHT22;4465;50.904;4.696;2023-02-01T12:55:24;10.20;99.90
8858;DHT22;4465;50.904;4.696;2023-02-01T13:00:40;10.00;99.90
8858;DHT22;4465;50.904;4.696;2023-02-01T13:09:01;9.90;99.90
8858;DHT22;4465;50.904;4.696;2023-02-01T13:11:38;9.80;99.90
8858;DHT22;4465;50.904;4.696;2023-02-01T13:16:49;9.90;99.90
8858;DHT22;4465;50.904;4.696;2023-02-01T13:19:28;9.90;99.90
8858;DHT22;4465;50.904;4.696;2023-02-01T13:21:58;9.80;99.90
8858;DHT22;4465;50.904;4.696;2023-02-01T13:24:44;9.80;99.90
8858;DHT22;4465;50.904;4.696;2023-02-01T13:27:15;9.80;99.90
8858;DHT22;4465;50.904;4.696;2023-02-01T13:40:44;9.80;99.90
8858;DHT22;4465;50.904;4.696;2023-02-01T13:43:17;9.90;99.90
8858;DHT22;4465;50.904;4.696;2023-02-01T13:45:51;9.90;99.90
8858;DHT22;4465;50.904;4.696;2023-02-01T13:48:24;9.90;99.90
8858;DHT22;4465;50.904;4.696;2023-02-01T13:50:56;9.90;99.90
8858;DHT22;4465;50.904;4.696;2023-02-01T13:53:33;10.00;99.90
8858;DHT22;4465;50.904;4.696;2023-02-01T13:56:15;10.00;99.90
8858;DHT22;4465;50.904;4.696;2023-02-01T13:58:45;10.00;99.90
8858;DHT22;4465;50.904;4.696;2023-02-01T14:03:54;10.00;99.90
8858;DHT22;4465;50.904;4.696;2023-02-01T14:09:13;9.90;99.90
8858;DHT22;4465;50.904;4.696;2023-02-01T14:11:52;9.80;99.90
8858;DHT22;4465;50.904;4.696;2023-02-01T14:19:32;9.70;99.90
8858;DHT22;4465;50.904;4.696;2023-02-01T14:24:56;9.70;99.90
8858;DHT22;4465;50.904;4.696;2023-02-01T14:27:28;9.70;99.90
8858;DHT22;4465;50.904;4.696;2023-02-01T14:30:01;9.70;99.90
8858;DHT22;4465;50.904;4.696;2023-02-01T14:32:33;9.70;99.90
8858;DHT22;4465;50.904;4.696;2023-02-01T14:35:02;9.70;99.90
8858;DHT22;4465;50.904;4.696;2023-02-01T14:37:37;9.70;99.90
8858;DHT22;4465;50.904;4.696;2023-02-01T14:40:15;9.70;99.90
8858;DHT22;4465;50.904;4.696;2023-02-01T14:47:54;9.60;99.90
8858;DHT22;4465;50.904;4.696;2023-02-01T14:55:34;9.60;99.90
8858;DHT22;4465;50.904;4.696;2023-02-01T14:58:16;9.60;99.90
8858;DHT22;4465;50.904;4.696;2023-02-01T15:00:56;9.50;99.90
8858;DHT22;4465;50.904;4.696;2023-02-01T15:03:31;9.50;99.90
8858;DHT22;4465;50.904;4.696;2023-02-01T15:05:59;9.50;99.90
8858;DHT22;4465;50.904;4.696;2023-02-01T15:08:35;9.50;99.90
8858;DHT22;4465;50.904;4.696;2023-02-01T15:11:08;9.50;99.90
8858;DHT22;4465;50.904;4.696;2023-02-01T15:13:36;9.50;99.90
8858;DHT22;4465;50.904;4.696;2023-02-01T15:16:08;9.40;99.90
8858;DHT22;4465;50.904;4.696;2023-02-01T15:18:36;9.40;99.90
8858;DHT22;4465;50.904;4.696;2023-02-01T15:21:03;9.40;99.90
8858;DHT22;4465;50.904;4.696;2023-02-01T15:23:31;9.30;99.90
8858;DHT22;4465;50.904;4.696;2023-02-01T15:25:57;9.30;99.90
8858;DHT22;4465;50.904;4.696;2023-02-01T15:28:26;9.30;99.90
8858;DHT22;4465;50.904;4.696;2023-02-01T15:30:58;9.30;99.90
8858;DHT22;4465;50.904;4.696;2023-02-01T15:33:26;9.30;99.90
8858;DHT22;4465;50.904;4.696;2023-02-01T15:35:53;9.30;99.90
8858;DHT22;4465;50.904;4.696;2023-02-01T15:41:01;9.20;99.90
8858;DHT22;4465;50.904;4.696;2023-02-01T15:43:29;9.20;99.90
8858;DHT22;4465;50.904;4.696;2023-02-01T15:45:57;9.20;99.90
8858;DHT22;4465;50.904;4.696;2023-02-01T15:48:26;9.20;99.90
8858;DHT22;4465;50.904;4.696;2023-02-01T15:50:55;9.20;99.90
8858;DHT22;4465;50.904;4.696;2023-02-01T15:53:24;9.20;99.90
8858;DHT22;4465;50.904;4.696;2023-02-01T15:55:57;9.20;99.90
8858;DHT22;4465;50.904;4.696;2023-02-01T15:58:26;9.20;99.90
8858;DHT22;4465;50.904;4.696;2023-02-01T16:00:56;9.10;99.90
8858;DHT22;4465;50.904;4.696;2023-02-01T16:03:40;9.20;99.90
8858;DHT22;4465;50.904;4.696;2023-02-01T16:06:12;9.10;99.90
8858;DHT22;4465;50.904;4.696;2023-02-01T16:08:55;9.10;99.90
8858;DHT22;4465;50.904;4.696;2023-02-01T16:11:28;9.10;99.90
8858;DHT22;4465;50.904;4.696;2023-02-01T16:13:57;9.10;99.90
8858;DHT22;4465;50.904;4.696;2023-02-01T16:16:24;9.10;99.90
8858;DHT22;4465;50.904;4.696;2023-02-01T16:18:51;9.10;99.90
8858;DHT22;4465;50.904;4.696;2023-02-01T16:21:17;9.00;99.90
8858;DHT22;4465;50.904;4.696;2023-02-01T16:23:45;9.00;99.90
8858;DHT22;4465;50.904;4.696;2023-02-01T16:26:13;9.00;99.90
8858;DHT22;4465;50.904;4.696;2023-02-01T16:28:39;9.00;99.90
8858;DHT22;4465;50.904;4.696;2023-02-01T16:31:09;9.00;99.90
8858;DHT22;4465;50.904;4.696;2023-02-01T16:33:42;9.00;99.90
8858;DHT22;4465;50.904;4.696;2023-02-01T16:36:10;9.00;99.90
8858;DHT22;4465;50.904;4.696;2023-02-01T16:38:37;9.00;99.90
8858;DHT22;4465;50.904;4.696;2023-02-01T16:41:05;9.00;99.90
8858;DHT22;4465;50.904;4.696;2023-02-01T16:43:31;9.00;99.90
8858;DHT22;4465;50.904;4.696;2023-02-01T16:46:00;9.00;99.90
8858;DHT22;4465;50.904;4.696;2023-02-01T16:48:38;8.90;99.90
8858;DHT22;4465;50.904;4.696;2023-02-01T16:51:12;8.90;99.90
8858;DHT22;4465;50.904;4.696;2023-02-01T16:53:41;8.90;99.90
8858;DHT22;4465;50.904;4.696;2023-02-01T16:56:13;8.90;99.90
8858;DHT22;4465;50.904;4.696;2023-02-01T16:58:40;8.90;99.90
8858;DHT22;4465;50.904;4.696;2023-02-01T17:01:14;8.90;99.90
8858;DHT22;4465;50.904;4.696;2023-02-01T17:03:42;8.80;99.90
8858;DHT22;4465;50.904;4.696;2023-02-01T17:06:15;8.80;99.90
8858;DHT22;4465;50.904;4.696;2023-02-01T17:08:43;8.80;99.90
8858;DHT22;4465;50.904;4.696;2023-02-01T17:11:11;8.80;99.90
8858;DHT22;4465;50.904;4.696;2023-02-01T17:13:38;8.80;99.90
8858;DHT22;4465;50.904;4.696;2023-02-01T17:16:19;8.80;99.90
8858;DHT22;4465;50.904;4.696;2023-02-01T17:18:58;8.80;99.90
8858;DHT22;4465;50.904;4.696;2023-02-01T17:21:27;8.80;99.90
8858;DHT22;4465;50.904;4.696;2023-02-01T17:23:56;8.80;99.90
8858;DHT22;4465;50.904;4.696;2023-02-01T17:26:24;8.80;99.90
8858;DHT22;4465;50.904;4.696;2023-02-01T17:28:51;8.80;99.90
8858;DHT22;4465;50.904;4.696;2023-02-01T17:31:17;8.80;99.90
8858;DHT22;4465;50.904;4.696;2023-02-01T17:33:44;8.90;99.90
8858;DHT22;4465;50.904;4.696;2023-02-01T17:36:15;8.80;99.90
8858;DHT22;4465;50.904;4.696;2023-02-01T17:38:42;8.80;99.90
8858;DHT22;4465;50.904;4.696;2023-02-01T17:41:12;8.80;99.90
8858;DHT22;4465;50.904;4.696;2023-02-01T17:43:39;8.80;99.90
8858;DHT22;4465;50.904;4.696;2023-02-01T17:46:14;8.80;99.90
8858;DHT22;4465;50.904;4.696;2023-02-01T17:48:41;8.80;99.90
8858;DHT22;4465;50.904;4.696;2023-02-01T17:51:19;8.80;99.90
8858;DHT22;4465;50.904;4.696;2023-02-01T17:53:46;8.80;99.90
8858;DHT22;4465;50.904;4.696;2023-02-01T17:56:17;8.80;99.90
8858;DHT22;4465;50.904;4.696;2023-02-01T17:58:44;8.70;99.90
8858;DHT22;4465;50.904;4.696;2023-02-01T18:01:13;8.70;99.90
8858;DHT22;4465;50.904;4.696;2023-02-01T18:03:40;8.70;99.90
8858;DHT22;4465;50.904;4.696;2023-02-01T18:06:14;8.70;99.90
8858;DHT22;4465;50.904;4.696;2023-02-01T18:08:42;8.80;99.90
8858;DHT22;4465;50.904;4.696;2023-02-01T18:11:20;8.80;99.90
8858;DHT22;4465;50.904;4.696;2023-02-01T18:13:50;8.70;99.90
8858;DHT22;4465;50.904;4.696;2023-02-01T18:16:29;8.80;99.90
8858;DHT22;4465;50.904;4.696;2023-02-01T18:18:56;8.70;99.90
8858;DHT22;4465;50.904;4.696;2023-02-01T18:21:32;8.80;99.90
8858;DHT22;4465;50.904;4.696;2023-02-01T18:24:02;8.70;99.90
8858;DHT22;4465;50.904;4.696;2023-02-01T18:26:31;8.70;99.90
8858;DHT22;4465;50.904;4.696;2023-02-01T18:28:57;8.70;99.90
8858;DHT22;4465;50.904;4.696;2023-02-01T18:31:26;8.70;99.90
8858;DHT22;4465;50.904;4.696;2023-02-01T18:33:56;8.70;99.90
8858;DHT22;4465;50.904;4.696;2023-02-01T18:36:22;8.70;99.90
8858;DHT22;4465;50.904;4.696;2023-02-01T18:38:49;8.70;99.90
8858;DHT22;4465;50.904;4.696;2023-02-01T18:41:17;8.70;99.90
8858;DHT22;4465;50.904;4.696;2023-02-01T18:43:45;8.70;99.90
8858;DHT22;4465;50.904;4.696;2023-02-01T18:46:12;8.70;99.90